sensor_id;sensor_type;location;lat;lon;timestamp;pressure;altitude;pressure_sealevel;temperature
76394;BMP180;65216;51.090;-115.352;2023-03-21T00:01:21;86038.80;;;23.60
76394;BMP180;65216;51.090;-115.352;2023-03-21T00:03:49;86039.60;;;23.60
76394;BMP180;65216;51.090;-115.352;2023-03-21T00:06:16;86060.80;;;23.60
76394;BMP180;65216;51.090;-115.352;2023-03-21T00:08:44;86058.60;;;23.60
76394;BMP180;65216;51.090;-115.352;2023-03-21T00:11:16;86037.20;;;23.60
76394;BMP180;65216;51.090;-115.352;2023-03-21T00:13:47;86057.20;;;23.50
76394;BMP180;65216;51.090;-115.352;2023-03-21T00:16:17;86049.80;;;23.50
76394;BMP180;65216;51.090;-115.352;2023-03-21T00:18:49;86059.00;;;23.50
76394;BMP180;65216;51.090;-115.352;2023-03-21T00:21:23;86048.80;;;23.40
76394;BMP180;65216;51.090;-115.352;2023-03-21T00:23:55;86047.40;;;23.40
76394;BMP180;65216;51.090;-115.352;2023-03-21T00:26:22;86063.00;;;23.40
76394;BMP180;65216;51.090;-115.352;2023-03-21T00:28:50;86046.20;;;23.40
76394;BMP180;65216;51.090;-115.352;2023-03-21T00:31:18;86057.00;;;23.30
76394;BMP180;65216;51.090;-115.352;2023-03-21T00:33:45;86055.00;;;23.30
76394;BMP180;65216;51.090;-115.352;2023-03-21T00:36:14;86063.40;;;23.30
76394;BMP180;65216;51.090;-115.352;2023-03-21T00:38:48;86066.40;;;23.20
76394;BMP180;65216;51.090;-115.352;2023-03-21T00:41:18;86056.60;;;23.20
76394;BMP180;65216;51.090;-115.352;2023-03-21T00:43:45;86063.00;;;23.14
76394;BMP180;65216;51.090;-115.352;2023-03-21T00:46:13;86056.20;;;23.10
76394;BMP180;65216;51.090;-115.352;2023-03-21T00:48:40;86053.80;;;23.10
76394;BMP180;65216;51.090;-115.352;2023-03-21T00:51:19;86056.40;;;23.00
76394;BMP180;65216;51.090;-115.352;2023-03-21T00:53:56;86048.40;;;23.00
76394;BMP180;65216;51.090;-115.352;2023-03-21T00:56:24;86053.60;;;23.00
76394;BMP180;65216;51.090;-115.352;2023-03-21T00:58:51;86056.80;;;22.96
76394;BMP180;65216;51.090;-115.352;2023-03-21T01:01:24;86052.80;;;22.90
76394;BMP180;65216;51.090;-115.352;2023-03-21T01:03:59;86061.00;;;22.90
76394;BMP180;65216;51.090;-115.352;2023-03-21T01:06:36;86066.80;;;22.80
76394;BMP180;65216;51.090;-115.352;2023-03-21T01:09:19;86065.60;;;22.80
76394;BMP180;65216;51.090;-115.352;2023-03-21T01:11:49;86077.40;;;22.78
76394;BMP180;65216;51.090;-115.352;2023-03-21T01:14:22;86062.80;;;22.70
76394;BMP180;65216;51.090;-115.352;2023-03-21T01:16:52;86079.80;;;22.70
76394;BMP180;65216;51.090;-115.352;2023-03-21T01:19:22;86088.40;;;22.70
76394;BMP180;65216;51.090;-115.352;2023-03-21T01:21:55;86072.00;;;22.60
76394;BMP180;65216;51.090;-115.352;2023-03-21T01:24:22;86079.40;;;22.60
76394;BMP180;65216;51.090;-115.352;2023-03-21T01:26:52;86076.20;;;22.60
76394;BMP180;65216;51.090;-115.352;2023-03-21T01:29:19;86071.80;;;22.60
76394;BMP180;65216;51.090;-115.352;2023-03-21T01:31:47;86087.00;;;22.54
76394;BMP180;65216;51.090;-115.352;2023-03-21T01:34:14;86079.40;;;22.50
76394;BMP180;65216;51.090;-115.352;2023-03-21T01:36:42;86105.60;;;22.50
76394;BMP180;65216;51.090;-115.352;2023-03-21T01:39:09;86091.40;;;22.50
76394;BMP180;65216;51.090;-115.352;2023-03-21T01:41:41;86098.00;;;22.50
76394;BMP180;65216;51.090;-115.352;2023-03-21T01:44:21;86089.40;;;22.42
76394;BMP180;65216;51.090;-115.352;2023-03-21T01:46:50;86096.00;;;22.40
76394;BMP180;65216;51.090;-115.352;2023-03-21T01:49:45;86101.40;;;22.40
76394;BMP180;65216;51.090;-115.352;2023-03-21T01:52:20;86093.40;;;22.40
76394;BMP180;65216;51.090;-115.352;2023-03-21T01:54:51;86106.40;;;22.40
76394;BMP180;65216;51.090;-115.352;2023-03-21T01:57:31;86105.00;;;22.30
76394;BMP180;65216;51.090;-115.352;2023-03-21T02:00:04;86097.80;;;22.30
76394;BMP180;65216;51.090;-115.352;2023-03-21T02:02:44;86111.80;;;22.30
76394;BMP180;65216;51.090;-115.352;2023-03-21T02:05:59;86112.80;;;22.30
76394;BMP180;65216;51.090;-115.352;2023-03-21T02:08:29;86116.40;;;22.30
76394;BMP180;65216;51.090;-115.352;2023-03-21T02:10:57;86116.60;;;22.20
76394;BMP180;65216;51.090;-115.352;2023-03-21T02:13:27;86114.20;;;22.20
76394;BMP180;65216;51.090;-115.352;2023-03-21T02:16:11;86130.60;;;22.20
76394;BMP180;65216;51.090;-115.352;2023-03-21T02:19:13;86140.20;;;22.20
76394;BMP180;65216;51.090;-115.352;2023-03-21T02:27:53;86141.40;;;22.10
76394;BMP180;65216;51.090;-115.352;2023-03-21T02:34:13;86156.00;;;22.10
76394;BMP180;65216;51.090;-115.352;2023-03-21T02:39:58;86156.00;;;22.10
76394;BMP180;65216;51.090;-115.352;2023-03-21T02:42:50;86155.40;;;22.10
76394;BMP180;65216;51.090;-115.352;2023-03-21T02:45:35;86154.00;;;22.00
76394;BMP180;65216;51.090;-115.352;2023-03-21T02:48:12;86165.80;;;22.00
76394;BMP180;65216;51.090;-115.352;2023-03-21T02:50:46;86165.40;;;22.00
76394;BMP180;65216;51.090;-115.352;2023-03-21T02:53:20;86170.40;;;22.00
76394;BMP180;65216;51.090;-115.352;2023-03-21T02:55:51;86173.00;;;22.00
76394;BMP180;65216;51.090;-115.352;2023-03-21T02:58:24;86176.20;;;22.00
76394;BMP180;65216;51.090;-115.352;2023-03-21T03:00:54;86178.40;;;22.00
76394;BMP180;65216;51.090;-115.352;2023-03-21T03:03:23;86186.60;;;21.98
76394;BMP180;65216;51.090;-115.352;2023-03-21T03:05:57;86193.20;;;21.90
76394;BMP180;65216;51.090;-115.352;2023-03-21T03:11:45;86196.00;;;21.90
76394;BMP180;65216;51.090;-115.352;2023-03-21T03:23:17;86209.20;;;21.88
76394;BMP180;65216;51.090;-115.352;2023-03-21T03:26:08;86230.80;;;21.80
76394;BMP180;65216;51.090;-115.352;2023-03-21T03:28:49;86229.00;;;21.80
76394;BMP180;65216;51.090;-115.352;2023-03-21T03:31:25;86225.40;;;21.80
76394;BMP180;65216;51.090;-115.352;2023-03-21T03:34:00;86234.00;;;21.80
76394;BMP180;65216;51.090;-115.352;2023-03-21T03:36:34;86229.00;;;21.80
76394;BMP180;65216;51.090;-115.352;2023-03-21T03:39:10;86237.60;;;21.80
76394;BMP180;65216;51.090;-115.352;2023-03-21T03:42:12;86235.40;;;21.80
76394;BMP180;65216;51.090;-115.352;2023-03-21T03:44:41;86235.40;;;21.70
76394;BMP180;65216;51.090;-115.352;2023-03-21T03:50:00;86242.80;;;21.70
76394;BMP180;65216;51.090;-115.352;2023-03-21T03:53:27;86246.40;;;21.70
76394;BMP180;65216;51.090;-115.352;2023-03-21T03:55:35;86242.80;;;21.70
76394;BMP180;65216;51.090;-115.352;2023-03-21T03:58:04;86253.40;;;21.68
76394;BMP180;65216;51.090;-115.352;2023-03-21T04:00:33;86255.40;;;21.62
76394;BMP180;65216;51.090;-115.352;2023-03-21T04:03:01;86244.60;;;21.60
76394;BMP180;65216;51.090;-115.352;2023-03-21T04:05:28;86255.20;;;21.60
76394;BMP180;65216;51.090;-115.352;2023-03-21T04:07:55;86258.20;;;21.60
76394;BMP180;65216;51.090;-115.352;2023-03-21T04:10:25;86252.20;;;21.60
76394;BMP180;65216;51.090;-115.352;2023-03-21T04:12:52;86263.80;;;21.60
76394;BMP180;65216;51.090;-115.352;2023-03-21T04:15:19;86267.20;;;21.60
76394;BMP180;65216;51.090;-115.352;2023-03-21T04:17:47;86264.20;;;21.50
76394;BMP180;65216;51.090;-115.352;2023-03-21T04:20:15;86265.40;;;21.50
76394;BMP180;65216;51.090;-115.352;2023-03-21T04:22:42;86265.80;;;21.50
76394;BMP180;65216;51.090;-115.352;2023-03-21T04:25:10;86271.40;;;21.50
76394;BMP180;65216;51.090;-115.352;2023-03-21T04:27:43;86273.40;;;21.50
76394;BMP180;65216;51.090;-115.352;2023-03-21T04:30:14;86274.20;;;21.50
76394;BMP180;65216;51.090;-115.352;2023-03-21T04:32:41;86276.00;;;21.50
76394;BMP180;65216;51.090;-115.352;2023-03-21T04:35:24;86271.80;;;21.40
76394;BMP180;65216;51.090;-115.352;2023-03-21T04:37:51;86275.60;;;21.40
76394;BMP180;65216;51.090;-115.352;2023-03-21T04:40:19;86277.40;;;21.40
76394;BMP180;65216;51.090;-115.352;2023-03-21T04:42:47;86279.00;;;21.40
76394;BMP180;65216;51.090;-115.352;2023-03-21T04:45:15;86276.40;;;21.40
76394;BMP180;65216;51.090;-115.352;2023-03-21T04:47:43;86279.40;;;21.40
76394;BMP180;65216;51.090;-115.352;2023-03-21T04:50:11;86277.40;;;21.40
76394;BMP180;65216;51.090;-115.352;2023-03-21T04:52:39;86279.80;;;21.38
76394;BMP180;65216;51.090;-115.352;2023-03-21T04:55:07;86285.20;;;21.34
76394;BMP180;65216;51.090;-115.352;2023-03-21T04:57:37;86284.20;;;21.30
76394;BMP180;65216;51.090;-115.352;2023-03-21T05:00:12;86286.40;;;21.30
76394;BMP180;65216;51.090;-115.352;2023-03-21T05:02:42;86286.20;;;21.30
76394;BMP180;65216;51.090;-115.352;2023-03-21T05:05:10;86289.00;;;21.30
76394;BMP180;65216;51.090;-115.352;2023-03-21T05:07:40;86287.60;;;21.30
76394;BMP180;65216;51.090;-115.352;2023-03-21T05:10:11;86291.60;;;21.30
76394;BMP180;65216;51.090;-115.352;2023-03-21T05:12:38;86292.40;;;21.30
76394;BMP180;65216;51.090;-115.352;2023-03-21T05:15:07;86296.00;;;21.24
76394;BMP180;65216;51.090;-115.352;2023-03-21T05:17:35;86299.20;;;21.24
76394;BMP180;65216;51.090;-115.352;2023-03-21T05:20:02;86303.40;;;21.20
76394;BMP180;65216;51.090;-115.352;2023-03-21T05:22:30;86307.20;;;21.20
76394;BMP180;65216;51.090;-115.352;2023-03-21T05:25:08;86305.40;;;21.20
76394;BMP180;65216;51.090;-115.352;2023-03-21T05:27:35;86307.80;;;21.20
76394;BMP180;65216;51.090;-115.352;2023-03-21T05:30:12;86309.40;;;21.20
76394;BMP180;65216;51.090;-115.352;2023-03-21T05:32:39;86309.80;;;21.20
76394;BMP180;65216;51.090;-115.352;2023-03-21T05:35:07;86311.80;;;21.20
76394;BMP180;65216;51.090;-115.352;2023-03-21T05:37:34;86310.80;;;21.20
76394;BMP180;65216;51.090;-115.352;2023-03-21T05:40:02;86312.80;;;21.20
76394;BMP180;65216;51.090;-115.352;2023-03-21T05:42:31;86316.80;;;21.16
76394;BMP180;65216;51.090;-115.352;2023-03-21T05:44:59;86318.20;;;21.10
76394;BMP180;65216;51.090;-115.352;2023-03-21T05:47:29;86318.60;;;21.10
76394;BMP180;65216;51.090;-115.352;2023-03-21T05:49:58;86320.00;;;21.10
76394;BMP180;65216;51.090;-115.352;2023-03-21T05:52:25;86322.00;;;21.10
76394;BMP180;65216;51.090;-115.352;2023-03-21T05:54:54;86320.20;;;21.10
76394;BMP180;65216;51.090;-115.352;2023-03-21T05:57:21;86323.00;;;21.04
76394;BMP180;65216;51.090;-115.352;2023-03-21T05:59:48;86323.80;;;21.06
76394;BMP180;65216;51.090;-115.352;2023-03-21T06:02:19;86324.40;;;21.10
76394;BMP180;65216;51.090;-115.352;2023-03-21T06:04:46;86322.80;;;21.10
76394;BMP180;65216;51.090;-115.352;2023-03-21T06:07:16;86321.80;;;21.08
76394;BMP180;65216;51.090;-115.352;2023-03-21T06:09:43;86319.20;;;21.10
76394;BMP180;65216;51.090;-115.352;2023-03-21T06:12:14;86320.20;;;21.10
76394;BMP180;65216;51.090;-115.352;2023-03-21T06:14:41;86321.80;;;21.10
76394;BMP180;65216;51.090;-115.352;2023-03-21T06:17:08;86322.60;;;21.10
76394;BMP180;65216;51.090;-115.352;2023-03-21T06:19:39;86323.40;;;21.10
76394;BMP180;65216;51.090;-115.352;2023-03-21T06:22:06;86325.20;;;21.10
76394;BMP180;65216;51.090;-115.352;2023-03-21T06:24:33;86325.20;;;21.10
76394;BMP180;65216;51.090;-115.352;2023-03-21T06:27:00;86326.60;;;21.10
76394;BMP180;65216;51.090;-115.352;2023-03-21T06:29:30;86326.80;;;21.10
76394;BMP180;65216;51.090;-115.352;2023-03-21T06:31:57;86328.20;;;21.10
76394;BMP180;65216;51.090;-115.352;2023-03-21T06:34:24;86328.40;;;21.10
76394;BMP180;65216;51.090;-115.352;2023-03-21T06:36:52;86332.80;;;21.10
76394;BMP180;65216;51.090;-115.352;2023-03-21T06:39:20;86332.80;;;21.10
76394;BMP180;65216;51.090;-115.352;2023-03-21T06:41:48;86330.40;;;21.10
76394;BMP180;65216;51.090;-115.352;2023-03-21T06:44:15;86328.60;;;21.08
76394;BMP180;65216;51.090;-115.352;2023-03-21T06:46:42;86327.40;;;21.10
76394;BMP180;65216;51.090;-115.352;2023-03-21T06:49:09;86329.20;;;21.10
76394;BMP180;65216;51.090;-115.352;2023-03-21T06:51:36;86328.20;;;21.08
76394;BMP180;65216;51.090;-115.352;2023-03-21T06:54:06;86329.20;;;21.10
76394;BMP180;65216;51.090;-115.352;2023-03-21T06:56:33;86328.40;;;21.10
76394;BMP180;65216;51.090;-115.352;2023-03-21T06:59:04;86327.40;;;21.10
76394;BMP180;65216;51.090;-115.352;2023-03-21T07:01:35;86328.20;;;21.10
76394;BMP180;65216;51.090;-115.352;2023-03-21T07:04:02;86331.00;;;21.10
76394;BMP180;65216;51.090;-115.352;2023-03-21T07:06:31;86328.40;;;21.10
76394;BMP180;65216;51.090;-115.352;2023-03-21T07:08:58;86326.20;;;21.10
76394;BMP180;65216;51.090;-115.352;2023-03-21T07:11:26;86330.20;;;21.10
76394;BMP180;65216;51.090;-115.352;2023-03-21T07:13:53;86327.40;;;21.08
76394;BMP180;65216;51.090;-115.352;2023-03-21T07:16:21;86325.60;;;21.02
76394;BMP180;65216;51.090;-115.352;2023-03-21T07:18:50;86323.80;;;21.00
76394;BMP180;65216;51.090;-115.352;2023-03-21T07:21:17;86322.00;;;21.00
76394;BMP180;65216;51.090;-115.352;2023-03-21T07:23:44;86324.60;;;21.00
76394;BMP180;65216;51.090;-115.352;2023-03-21T07:26:12;86326.80;;;21.02
76394;BMP180;65216;51.090;-115.352;2023-03-21T07:28:41;86326.60;;;21.00
76394;BMP180;65216;51.090;-115.352;2023-03-21T07:31:13;86327.40;;;21.00
76394;BMP180;65216;51.090;-115.352;2023-03-21T07:33:43;86326.40;;;21.00
76394;BMP180;65216;51.090;-115.352;2023-03-21T07:36:15;86326.80;;;21.00
76394;BMP180;65216;51.090;-115.352;2023-03-21T07:38:45;86325.60;;;21.00
76394;BMP180;65216;51.090;-115.352;2023-03-21T07:41:12;86322.60;;;21.00
76394;BMP180;65216;51.090;-115.352;2023-03-21T07:43:42;86326.00;;;21.00
76394;BMP180;65216;51.090;-115.352;2023-03-21T07:46:09;86323.00;;;21.00
76394;BMP180;65216;51.090;-115.352;2023-03-21T07:48:36;86325.40;;;21.00
76394;BMP180;65216;51.090;-115.352;2023-03-21T07:51:04;86324.60;;;21.00
76394;BMP180;65216;51.090;-115.352;2023-03-21T07:53:31;86324.60;;;21.00
76394;BMP180;65216;51.090;-115.352;2023-03-21T07:55:58;86325.60;;;21.00
76394;BMP180;65216;51.090;-115.352;2023-03-21T07:58:29;86325.00;;;21.00
76394;BMP180;65216;51.090;-115.352;2023-03-21T08:01:01;86326.20;;;21.00
76394;BMP180;65216;51.090;-115.352;2023-03-21T08:03:28;86327.60;;;21.00
76394;BMP180;65216;51.090;-115.352;2023-03-21T08:05:59;86331.20;;;21.00
76394;BMP180;65216;51.090;-115.352;2023-03-21T08:08:29;86327.80;;;21.00
76394;BMP180;65216;51.090;-115.352;2023-03-21T08:10:56;86336.00;;;20.92
76394;BMP180;65216;51.090;-115.352;2023-03-21T08:13:24;86337.60;;;20.90
76394;BMP180;65216;51.090;-115.352;2023-03-21T08:15:51;86336.40;;;20.98
76394;BMP180;65216;51.090;-115.352;2023-03-21T08:18:19;86337.60;;;21.00
76394;BMP180;65216;51.090;-115.352;2023-03-21T08:20:51;86337.00;;;20.94
76394;BMP180;65216;51.090;-115.352;2023-03-21T08:23:21;86343.20;;;20.90
76394;BMP180;65216;51.090;-115.352;2023-03-21T08:25:56;86345.00;;;20.90
76394;BMP180;65216;51.090;-115.352;2023-03-21T08:28:23;86347.60;;;20.90
76394;BMP180;65216;51.090;-115.352;2023-03-21T08:30:50;86347.20;;;20.92
76394;BMP180;65216;51.090;-115.352;2023-03-21T08:33:18;86348.80;;;20.90
76394;BMP180;65216;51.090;-115.352;2023-03-21T08:35:46;86346.40;;;20.90
76394;BMP180;65216;51.090;-115.352;2023-03-21T08:38:13;86351.40;;;20.90
76394;BMP180;65216;51.090;-115.352;2023-03-21T08:40:42;86353.00;;;20.90
76394;BMP180;65216;51.090;-115.352;2023-03-21T08:43:10;86352.00;;;20.90
76394;BMP180;65216;51.090;-115.352;2023-03-21T08:45:42;86350.40;;;20.90
76394;BMP180;65216;51.090;-115.352;2023-03-21T08:48:09;86355.60;;;20.90
76394;BMP180;65216;51.090;-115.352;2023-03-21T08:50:36;86366.40;;;20.90
76394;BMP180;65216;51.090;-115.352;2023-03-21T08:53:03;86361.80;;;20.90
76394;BMP180;65216;51.090;-115.352;2023-03-21T08:55:33;86362.80;;;20.90
76394;BMP180;65216;51.090;-115.352;2023-03-21T08:58:02;86365.20;;;20.90
76394;BMP180;65216;51.090;-115.352;2023-03-21T09:00:32;86370.00;;;20.90
76394;BMP180;65216;51.090;-115.352;2023-03-21T09:02:59;86372.00;;;20.90
76394;BMP180;65216;51.090;-115.352;2023-03-21T09:05:27;86374.60;;;20.90
76394;BMP180;65216;51.090;-115.352;2023-03-21T09:07:54;86372.20;;;20.90
76394;BMP180;65216;51.090;-115.352;2023-03-21T09:10:23;86376.60;;;20.90
76394;BMP180;65216;51.090;-115.352;2023-03-21T09:12:52;86379.00;;;20.90
76394;BMP180;65216;51.090;-115.352;2023-03-21T09:15:22;86380.20;;;20.90
76394;BMP180;65216;51.090;-115.352;2023-03-21T09:17:50;86378.60;;;20.90
76394;BMP180;65216;51.090;-115.352;2023-03-21T09:20:26;86378.00;;;20.90
76394;BMP180;65216;51.090;-115.352;2023-03-21T09:22:59;86379.40;;;20.90
76394;BMP180;65216;51.090;-115.352;2023-03-21T09:25:27;86382.20;;;20.90
76394;BMP180;65216;51.090;-115.352;2023-03-21T09:28:02;86379.40;;;20.90
76394;BMP180;65216;51.090;-115.352;2023-03-21T09:30:34;86382.40;;;20.90
76394;BMP180;65216;51.090;-115.352;2023-03-21T09:33:05;86388.60;;;20.90
76394;BMP180;65216;51.090;-115.352;2023-03-21T09:35:36;86385.40;;;20.90
76394;BMP180;65216;51.090;-115.352;2023-03-21T09:38:04;86387.60;;;20.90
76394;BMP180;65216;51.090;-115.352;2023-03-21T09:46:16;86391.80;;;20.80
76394;BMP180;65216;51.090;-115.352;2023-03-21T09:49:03;86392.20;;;20.80
76394;BMP180;65216;51.090;-115.352;2023-03-21T09:51:44;86391.80;;;20.80
76394;BMP180;65216;51.090;-115.352;2023-03-21T09:54:29;86393.20;;;20.80
76394;BMP180;65216;51.090;-115.352;2023-03-21T09:57:10;86392.60;;;20.80
76394;BMP180;65216;51.090;-115.352;2023-03-21T09:59:41;86391.20;;;20.80
76394;BMP180;65216;51.090;-115.352;2023-03-21T10:02:42;86391.60;;;20.80
76394;BMP180;65216;51.090;-115.352;2023-03-21T10:05:27;86394.40;;;20.80
76394;BMP180;65216;51.090;-115.352;2023-03-21T10:08:35;86395.20;;;20.80
76394;BMP180;65216;51.090;-115.352;2023-03-21T10:14:04;86396.40;;;20.80
76394;BMP180;65216;51.090;-115.352;2023-03-21T10:20:18;86395.80;;;20.80
76394;BMP180;65216;51.090;-115.352;2023-03-21T10:22:50;86392.80;;;20.80
76394;BMP180;65216;51.090;-115.352;2023-03-21T10:25:35;86396.00;;;20.80
76394;BMP180;65216;51.090;-115.352;2023-03-21T10:28:06;86396.60;;;20.80
76394;BMP180;65216;51.090;-115.352;2023-03-21T10:30:52;86392.00;;;20.80
76394;BMP180;65216;51.090;-115.352;2023-03-21T10:33:45;86396.80;;;20.80
76394;BMP180;65216;51.090;-115.352;2023-03-21T10:39:06;86398.20;;;20.70
76394;BMP180;65216;51.090;-115.352;2023-03-21T10:41:39;86397.80;;;20.72
76394;BMP180;65216;51.090;-115.352;2023-03-21T10:44:14;86397.20;;;20.70
76394;BMP180;65216;51.090;-115.352;2023-03-21T10:47:02;86402.20;;;20.70
76394;BMP180;65216;51.090;-115.352;2023-03-21T10:49:30;86402.20;;;20.70
76394;BMP180;65216;51.090;-115.352;2023-03-21T10:52:07;86400.00;;;20.70
76394;BMP180;65216;51.090;-115.352;2023-03-21T10:54:36;86401.00;;;20.64
76394;BMP180;65216;51.090;-115.352;2023-03-21T10:57:20;86402.60;;;20.60
76394;BMP180;65216;51.090;-115.352;2023-03-21T11:00:02;86406.20;;;20.60
76394;BMP180;65216;51.090;-115.352;2023-03-21T11:02:41;86406.80;;;20.60
76394;BMP180;65216;51.090;-115.352;2023-03-21T11:05:22;86406.60;;;20.60
76394;BMP180;65216;51.090;-115.352;2023-03-21T11:08:17;86402.40;;;20.60
76394;BMP180;65216;51.090;-115.352;2023-03-21T11:11:08;86407.80;;;20.60
76394;BMP180;65216;51.090;-115.352;2023-03-21T11:13:44;86405.20;;;20.60
76394;BMP180;65216;51.090;-115.352;2023-03-21T11:16:23;86408.60;;;20.50
76394;BMP180;65216;51.090;-115.352;2023-03-21T11:18:59;86407.80;;;20.50
76394;BMP180;65216;51.090;-115.352;2023-03-21T11:21:34;86411.60;;;20.50
76394;BMP180;65216;51.090;-115.352;2023-03-21T11:24:03;86412.00;;;20.50
76394;BMP180;65216;51.090;-115.352;2023-03-21T11:26:35;86414.60;;;20.50
76394;BMP180;65216;51.090;-115.352;2023-03-21T11:29:36;86410.20;;;20.50
76394;BMP180;65216;51.090;-115.352;2023-03-21T11:32:23;86411.40;;;20.50
76394;BMP180;65216;51.090;-115.352;2023-03-21T11:35:13;86415.20;;;20.50
76394;BMP180;65216;51.090;-115.352;2023-03-21T11:37:50;86420.00;;;20.46
76394;BMP180;65216;51.090;-115.352;2023-03-21T11:40:34;86418.20;;;20.40
76394;BMP180;65216;51.090;-115.352;2023-03-21T11:43:41;86419.60;;;20.40
76394;BMP180;65216;51.090;-115.352;2023-03-21T11:46:14;86415.60;;;20.40
76394;BMP180;65216;51.090;-115.352;2023-03-21T11:48:48;86418.80;;;20.40
76394;BMP180;65216;51.090;-115.352;2023-03-21T11:54:27;86420.40;;;20.40
76394;BMP180;65216;51.090;-115.352;2023-03-21T12:05:38;86433.20;;;20.40
76394;BMP180;65216;51.090;-115.352;2023-03-21T12:14:52;86433.20;;;20.34
76394;BMP180;65216;51.090;-115.352;2023-03-21T12:23:15;86440.60;;;20.30
76394;BMP180;65216;51.090;-115.352;2023-03-21T12:26:07;86438.60;;;20.30
76394;BMP180;65216;51.090;-115.352;2023-03-21T12:34:25;86442.60;;;20.30
76394;BMP180;65216;51.090;-115.352;2023-03-21T12:39:40;86442.00;;;20.30
76394;BMP180;65216;51.090;-115.352;2023-03-21T12:45:23;86440.40;;;20.30
76394;BMP180;65216;51.090;-115.352;2023-03-21T12:48:12;86447.00;;;20.28
76394;BMP180;65216;51.090;-115.352;2023-03-21T12:50:41;86444.20;;;20.28
76394;BMP180;65216;51.090;-115.352;2023-03-21T12:53:43;86445.60;;;20.24
76394;BMP180;65216;51.090;-115.352;2023-03-21T12:56:44;86447.60;;;20.22
76394;BMP180;65216;51.090;-115.352;2023-03-21T12:59:44;86452.00;;;20.20
76394;BMP180;65216;51.090;-115.352;2023-03-21T13:07:24;86450.20;;;20.20
76394;BMP180;65216;51.090;-115.352;2023-03-21T13:09:55;86452.40;;;20.20
76394;BMP180;65216;51.090;-115.352;2023-03-21T13:20:57;86460.80;;;20.20
76394;BMP180;65216;51.090;-115.352;2023-03-21T13:23:37;86459.00;;;20.20
76394;BMP180;65216;51.090;-115.352;2023-03-21T13:26:09;86455.40;;;20.20
76394;BMP180;65216;51.090;-115.352;2023-03-21T13:28:40;86450.80;;;20.20
76394;BMP180;65216;51.090;-115.352;2023-03-21T13:31:26;86456.60;;;20.20
76394;BMP180;65216;51.090;-115.352;2023-03-21T13:33:59;86454.40;;;20.20
76394;BMP180;65216;51.090;-115.352;2023-03-21T13:36:29;86456.20;;;20.20
76394;BMP180;65216;51.090;-115.352;2023-03-21T13:39:04;86460.60;;;20.12
76394;BMP180;65216;51.090;-115.352;2023-03-21T13:41:41;86453.40;;;20.10
76394;BMP180;65216;51.090;-115.352;2023-03-21T13:44:40;86456.60;;;20.10
76394;BMP180;65216;51.090;-115.352;2023-03-21T13:50:27;86456.40;;;20.10
76394;BMP180;65216;51.090;-115.352;2023-03-21T13:53:19;86460.40;;;20.10
76394;BMP180;65216;51.090;-115.352;2023-03-21T13:56:01;86454.20;;;20.10
76394;BMP180;65216;51.090;-115.352;2023-03-21T14:01:37;86459.80;;;20.10
76394;BMP180;65216;51.090;-115.352;2023-03-21T14:04:20;86457.20;;;20.10
76394;BMP180;65216;51.090;-115.352;2023-03-21T14:07:18;86464.80;;;20.10
76394;BMP180;65216;51.090;-115.352;2023-03-21T14:10:15;86473.00;;;20.10
76394;BMP180;65216;51.090;-115.352;2023-03-21T14:12:47;86472.60;;;20.10
76394;BMP180;65216;51.090;-115.352;2023-03-21T14:15:23;86470.20;;;20.10
76394;BMP180;65216;51.090;-115.352;2023-03-21T14:20:34;86469.60;;;20.10
76394;BMP180;65216;51.090;-115.352;2023-03-21T14:23:13;86477.00;;;20.10
76394;BMP180;65216;51.090;-115.352;2023-03-21T14:25:41;86477.40;;;20.10
76394;BMP180;65216;51.090;-115.352;2023-03-21T14:28:30;86467.20;;;20.10
76394;BMP180;65216;51.090;-115.352;2023-03-21T14:31:02;86476.20;;;20.10
76394;BMP180;65216;51.090;-115.352;2023-03-21T14:33:41;86479.20;;;20.10
76394;BMP180;65216;51.090;-115.352;2023-03-21T14:36:22;86476.20;;;20.10
76394;BMP180;65216;51.090;-115.352;2023-03-21T14:41:32;86478.20;;;20.10
76394;BMP180;65216;51.090;-115.352;2023-03-21T14:44:35;86475.20;;;20.12
76394;BMP180;65216;51.090;-115.352;2023-03-21T14:47:08;86481.00;;;20.20
76394;BMP180;65216;51.090;-115.352;2023-03-21T14:49:43;86477.40;;;20.20
76394;BMP180;65216;51.090;-115.352;2023-03-21T14:52:21;86483.60;;;20.20
76394;BMP180;65216;51.090;-115.352;2023-03-21T14:54:51;86479.40;;;20.20
76394;BMP180;65216;51.090;-115.352;2023-03-21T14:57:26;86485.20;;;20.20
76394;BMP180;65216;51.090;-115.352;2023-03-21T14:59:59;86484.80;;;20.20
76394;BMP180;65216;51.090;-115.352;2023-03-21T15:02:40;86490.40;;;20.20
76394;BMP180;65216;51.090;-115.352;2023-03-21T15:10:23;86489.80;;;20.20
76394;BMP180;65216;51.090;-115.352;2023-03-21T15:12:58;86491.80;;;20.28
76394;BMP180;65216;51.090;-115.352;2023-03-21T15:15:28;86497.40;;;20.30
76394;BMP180;65216;51.090;-115.352;2023-03-21T15:18:05;86488.80;;;20.30
76394;BMP180;65216;51.090;-115.352;2023-03-21T15:20:36;86495.20;;;20.30
76394;BMP180;65216;51.090;-115.352;2023-03-21T15:23:15;86492.80;;;20.30
76394;BMP180;65216;51.090;-115.352;2023-03-21T15:25:46;86495.40;;;20.30
76394;BMP180;65216;51.090;-115.352;2023-03-21T15:28:14;86486.40;;;20.30
76394;BMP180;65216;51.090;-115.352;2023-03-21T15:30:49;86492.80;;;20.30
76394;BMP180;65216;51.090;-115.352;2023-03-21T15:33:18;86504.20;;;20.36
76394;BMP180;65216;51.090;-115.352;2023-03-21T15:35:52;86495.40;;;20.38
76394;BMP180;65216;51.090;-115.352;2023-03-21T15:38:23;86488.20;;;20.32
76394;BMP180;65216;51.090;-115.352;2023-03-21T15:46:44;86492.00;;;20.40
76394;BMP180;65216;51.090;-115.352;2023-03-21T15:49:31;86488.40;;;20.40
76394;BMP180;65216;51.090;-115.352;2023-03-21T15:52:14;86487.60;;;20.40
76394;BMP180;65216;51.090;-115.352;2023-03-21T15:54:47;86473.20;;;20.40
76394;BMP180;65216;51.090;-115.352;2023-03-21T15:57:25;86479.00;;;20.40
76394;BMP180;65216;51.090;-115.352;2023-03-21T16:03:03;86476.00;;;20.50
76394;BMP180;65216;51.090;-115.352;2023-03-21T16:05:36;86486.20;;;20.50